FIN951 EFHK-EKCH
Flight info
| Callsign | FIN951 |
|---|---|
| Flight time | 1h 28m |
| Altitude | 38000 |
| Route | NUNTO Y369 REKDO DCT KOSKA DCT TOKSI N872 ERNOV |
| Aircraft | A320/M-SDE3FGHIRWY/LB1 |
Departure
| Time | 2026-05-04 18:32 |
|---|---|
| Airport | Helsinki Vantaa Airport (EFHK) |
Arrival
| Time | 2026-05-04 20:01 |
|---|---|
| Airport | Copenhagen Kastrup Airport (EKCH) |
| Time | Latitude | Longitude | Altitude | Speed | Heading |
|---|---|---|---|---|---|
| 2026-05-04 17:52 | 60.31939 | 24.96671 | 170 ft | 0 kts | 138° |
| 2026-05-04 18:20 | 60.31945 | 24.96660 | 169 ft | 3 kts | 142° |
| 2026-05-04 18:20 | 60.31961 | 24.96639 | 169 ft | 3 kts | 160° |
| 2026-05-04 18:20 | 60.31980 | 24.96630 | 169 ft | 3 kts | 184° |
| 2026-05-04 18:21 | 60.31998 | 24.96639 | 169 ft | 2 kts | 218° |
| 2026-05-04 18:21 | 60.32003 | 24.96648 | 169 ft | 0 kts | 227° |
| 2026-05-04 18:24 | 60.31997 | 24.96633 | 168 ft | 6 kts | 227° |
| 2026-05-04 18:25 | 60.31943 | 24.96516 | 167 ft | 14 kts | 227° |
| 2026-05-04 18:25 | 60.31873 | 24.96360 | 166 ft | 16 kts | 230° |
| 2026-05-04 18:25 | 60.31870 | 24.96141 | 164 ft | 18 kts | 306° |
| 2026-05-04 18:25 | 60.31960 | 24.95966 | 162 ft | 11 kts | 317° |
| 2026-05-04 18:26 | 60.32004 | 24.95886 | 162 ft | 0 kts | 317° |
| 2026-05-04 18:27 | 60.32009 | 24.95876 | 162 ft | 7 kts | 317° |
| 2026-05-04 18:27 | 60.32074 | 24.95751 | 162 ft | 18 kts | 315° |
| 2026-05-04 18:27 | 60.32191 | 24.95538 | 161 ft | 25 kts | 321° |
| 2026-05-04 18:27 | 60.32320 | 24.95313 | 164 ft | 22 kts | 318° |
| 2026-05-04 18:28 | 60.32456 | 24.95200 | 166 ft | 21 kts | 341° |
| 2026-05-04 18:28 | 60.32597 | 24.95104 | 169 ft | 21 kts | 342° |
| 2026-05-04 18:28 | 60.32737 | 24.95014 | 173 ft | 20 kts | 342° |
| 2026-05-04 18:28 | 60.32852 | 24.94938 | 178 ft | 8 kts | 342° |
| 2026-05-04 18:29 | 60.32890 | 24.94912 | 180 ft | 3 kts | 336° |
| 2026-05-04 18:29 | 60.32906 | 24.94887 | 182 ft | 10 kts | 322° |
| 2026-05-04 18:29 | 60.32963 | 24.94784 | 188 ft | 9 kts | 316° |
| 2026-05-04 18:29 | 60.33016 | 24.94682 | 201 ft | 14 kts | 316° |
| 2026-05-04 18:30 | 60.33114 | 24.94493 | 201 ft | 6 kts | 299° |
| 2026-05-04 18:30 | 60.33103 | 24.94356 | 204 ft | 12 kts | 225° |
| 2026-05-04 18:30 | 60.33095 | 24.94342 | 198 ft | 0 kts | 223° |
| 2026-05-04 18:31 | 60.33077 | 24.94307 | 192 ft | 19 kts | 224° |
| 2026-05-04 18:32 | 60.32809 | 24.93714 | 183 ft | 92 kts | 227° |
| 2026-05-04 18:32 | 60.32242 | 24.92464 | 171 ft | 147 kts | 228° |
| 2026-05-04 18:32 | 60.31498 | 24.90804 | 519 ft | 164 kts | 227° |
| 2026-05-04 18:32 | 60.30721 | 24.89083 | 1192 ft | 169 kts | 231° |
| 2026-05-04 18:33 | 60.29883 | 24.87228 | 1592 ft | 191 kts | 234° |
| 2026-05-04 18:33 | 60.29392 | 24.84684 | 1944 ft | 212 kts | 271° |
| 2026-05-04 18:33 | 60.29788 | 24.81680 | 2520 ft | 232 kts | 292° |
| 2026-05-04 18:33 | 60.30260 | 24.78549 | 3381 ft | 236 kts | 272° |
| 2026-05-04 18:34 | 60.29873 | 24.75328 | 4346 ft | 241 kts | 246° |
| 2026-05-04 18:34 | 60.29156 | 24.72252 | 5337 ft | 242 kts | 249° |
| 2026-05-04 18:34 | 60.28509 | 24.69080 | 6277 ft | 245 kts | 250° |
| 2026-05-04 18:34 | 60.27884 | 24.65883 | 7209 ft | 246 kts | 250° |
| 2026-05-04 18:35 | 60.27253 | 24.62657 | 8140 ft | 248 kts | 250° |
| 2026-05-04 18:35 | 60.26609 | 24.59418 | 9057 ft | 250 kts | 249° |
| 2026-05-04 18:35 | 60.25954 | 24.56165 | 9950 ft | 252 kts | 249° |
| 2026-05-04 18:35 | 60.25290 | 24.52886 | 10779 ft | 254 kts | 249° |
| 2026-05-04 18:36 | 60.24624 | 24.49620 | 11587 ft | 256 kts | 248° |
| 2026-05-04 18:36 | 60.23835 | 24.46349 | 12243 ft | 268 kts | 243° |
| 2026-05-04 18:36 | 60.22915 | 24.42891 | 12492 ft | 291 kts | 243° |
| 2026-05-04 18:36 | 60.21912 | 24.39161 | 12661 ft | 314 kts | 243° |
| 2026-05-04 18:37 | 60.20847 | 24.35213 | 12804 ft | 335 kts | 243° |
| 2026-05-04 18:37 | 60.19703 | 24.30971 | 12963 ft | 354 kts | 243° |
| 2026-05-04 18:37 | 60.18512 | 24.26560 | 13460 ft | 362 kts | 242° |
| 2026-05-04 18:37 | 60.17299 | 24.22094 | 14069 ft | 366 kts | 242° |
| 2026-05-04 18:38 | 60.16072 | 24.17595 | 14690 ft | 368 kts | 242° |
| 2026-05-04 18:38 | 60.14836 | 24.13059 | 15288 ft | 371 kts | 242° |
| 2026-05-04 18:38 | 60.13594 | 24.08498 | 15868 ft | 374 kts | 242° |
| 2026-05-04 18:38 | 60.12344 | 24.03910 | 16447 ft | 376 kts | 242° |
| 2026-05-04 18:39 | 60.11081 | 23.99285 | 17001 ft | 378 kts | 242° |
| 2026-05-04 18:39 | 60.09805 | 23.94639 | 17552 ft | 381 kts | 242° |
| 2026-05-04 18:39 | 60.08538 | 23.90024 | 18095 ft | 383 kts | 242° |
| 2026-05-04 18:39 | 60.07261 | 23.85322 | 18531 ft | 385 kts | 243° |
| 2026-05-04 18:40 | 60.06008 | 23.80568 | 18954 ft | 387 kts | 243° |
| 2026-05-04 18:40 | 60.04761 | 23.75766 | 19377 ft | 389 kts | 244° |
| 2026-05-04 18:40 | 60.03513 | 23.70941 | 19788 ft | 391 kts | 243° |
| 2026-05-04 18:40 | 60.02253 | 23.66098 | 20195 ft | 393 kts | 243° |
| 2026-05-04 18:41 | 60.00980 | 23.61240 | 20588 ft | 395 kts | 243° |
| 2026-05-04 18:41 | 59.99692 | 23.56346 | 20983 ft | 397 kts | 243° |
| 2026-05-04 18:41 | 59.98400 | 23.51452 | 21361 ft | 399 kts | 243° |
| 2026-05-04 18:41 | 59.97096 | 23.46535 | 21732 ft | 401 kts | 243° |
| 2026-05-04 18:42 | 59.95781 | 23.41596 | 22097 ft | 403 kts | 243° |
| 2026-05-04 18:42 | 59.94458 | 23.36642 | 22441 ft | 405 kts | 243° |
| 2026-05-04 18:42 | 59.93145 | 23.31736 | 22771 ft | 407 kts | 243° |
| 2026-05-04 18:42 | 59.91805 | 23.26737 | 23092 ft | 409 kts | 243° |
| 2026-05-04 18:43 | 59.90463 | 23.21733 | 23381 ft | 410 kts | 243° |
| 2026-05-04 18:43 | 59.89111 | 23.16705 | 23629 ft | 412 kts | 243° |
| 2026-05-04 18:43 | 59.87751 | 23.11654 | 23829 ft | 414 kts | 243° |
| 2026-05-04 18:43 | 59.86401 | 23.06654 | 24067 ft | 415 kts | 243° |
| 2026-05-04 18:44 | 59.85034 | 23.01611 | 24385 ft | 414 kts | 243° |
| 2026-05-04 18:44 | 59.84572 | 22.99910 | 24492 ft | 414 kts | 243° |
| 2026-05-04 18:44 | 59.82304 | 22.91566 | 25070 ft | 412 kts | 244° |
| 2026-05-04 18:44 | 59.80930 | 22.86539 | 25417 ft | 412 kts | 244° |
| 2026-05-04 18:45 | 59.79559 | 22.81547 | 25762 ft | 411 kts | 244° |
| 2026-05-04 18:45 | 59.78192 | 22.76566 | 26107 ft | 410 kts | 244° |
| 2026-05-04 18:45 | 59.76833 | 22.71600 | 26452 ft | 410 kts | 244° |
| 2026-05-04 18:45 | 59.75474 | 22.66640 | 26806 ft | 409 kts | 244° |
| 2026-05-04 18:46 | 59.74112 | 22.61687 | 27160 ft | 408 kts | 244° |
| 2026-05-04 18:46 | 59.72750 | 22.56758 | 27539 ft | 408 kts | 244° |
| 2026-05-04 18:46 | 59.71388 | 22.51834 | 27887 ft | 407 kts | 244° |
| 2026-05-04 18:46 | 59.70030 | 22.46922 | 28259 ft | 406 kts | 244° |
| 2026-05-04 18:47 | 59.68669 | 22.42022 | 28632 ft | 406 kts | 244° |
| 2026-05-04 18:47 | 59.67308 | 22.37139 | 29007 ft | 405 kts | 244° |
| 2026-05-04 18:47 | 59.66406 | 22.33913 | 29254 ft | 405 kts | 244° |
| 2026-05-04 18:47 | 59.64583 | 22.27404 | 29767 ft | 404 kts | 244° |
| 2026-05-04 18:48 | 59.63223 | 22.22555 | 30090 ft | 403 kts | 244° |
| 2026-05-04 18:48 | 59.62323 | 22.19349 | 30297 ft | 403 kts | 244° |
| 2026-05-04 18:48 | 59.60963 | 22.14517 | 30604 ft | 402 kts | 244° |
| 2026-05-04 18:48 | 59.59604 | 22.09691 | 30920 ft | 402 kts | 244° |
| 2026-05-04 18:49 | 59.58250 | 22.04890 | 31149 ft | 397 kts | 244° |
| 2026-05-04 18:49 | 59.56913 | 22.00166 | 31284 ft | 390 kts | 244° |
| 2026-05-04 18:49 | 59.55177 | 21.94055 | 31489 ft | 380 kts | 245° |
| 2026-05-04 18:49 | 59.53892 | 21.89554 | 31616 ft | 374 kts | 245° |
| 2026-05-04 18:50 | 59.52624 | 21.85129 | 31747 ft | 368 kts | 245° |
| 2026-05-04 18:50 | 59.51375 | 21.80771 | 31870 ft | 363 kts | 245° |
| 2026-05-04 18:50 | 59.50553 | 21.77902 | 31900 ft | 360 kts | 245° |
| 2026-05-04 18:50 | 59.49328 | 21.73621 | 32030 ft | 356 kts | 245° |
| 2026-05-04 18:51 | 59.48114 | 21.69375 | 32162 ft | 353 kts | 245° |
| 2026-05-04 18:51 | 59.46526 | 21.63842 | 32334 ft | 348 kts | 245° |
| 2026-05-04 18:51 | 59.45722 | 21.61047 | 32424 ft | 346 kts | 245° |
| 2026-05-04 18:51 | 59.44538 | 21.56944 | 32555 ft | 343 kts | 245° |
| 2026-05-04 18:52 | 59.43380 | 21.52937 | 32691 ft | 340 kts | 245° |
| 2026-05-04 18:52 | 59.42219 | 21.48922 | 32825 ft | 337 kts | 245° |
| 2026-05-04 18:52 | 59.41065 | 21.44926 | 32955 ft | 334 kts | 245° |
| 2026-05-04 18:52 | 59.39923 | 21.40977 | 33092 ft | 331 kts | 245° |
| 2026-05-04 18:53 | 59.38786 | 21.37060 | 33225 ft | 329 kts | 245° |
| 2026-05-04 18:53 | 59.37655 | 21.33185 | 33363 ft | 326 kts | 245° |
| 2026-05-04 18:53 | 59.36527 | 21.29333 | 33500 ft | 324 kts | 245° |
| 2026-05-04 18:53 | 59.35413 | 21.25528 | 33641 ft | 321 kts | 245° |
| 2026-05-04 18:54 | 59.34306 | 21.21746 | 33771 ft | 319 kts | 245° |
| 2026-05-04 18:54 | 59.33209 | 21.17995 | 33885 ft | 316 kts | 245° |
| 2026-05-04 18:54 | 59.32121 | 21.14280 | 33995 ft | 313 kts | 245° |
| 2026-05-04 18:55 | 59.29981 | 21.07004 | 34190 ft | 307 kts | 245° |
| 2026-05-04 18:55 | 59.27869 | 20.99856 | 34443 ft | 299 kts | 245° |
| 2026-05-04 18:55 | 59.26829 | 20.96360 | 34559 ft | 295 kts | 245° |
| 2026-05-04 18:56 | 59.25800 | 20.92894 | 34682 ft | 297 kts | 245° |
| 2026-05-04 18:56 | 59.24760 | 20.89370 | 34805 ft | 301 kts | 245° |
| 2026-05-04 18:56 | 59.23708 | 20.85804 | 34928 ft | 305 kts | 245° |
| 2026-05-04 18:56 | 59.22638 | 20.82181 | 35050 ft | 310 kts | 245° |
| 2026-05-04 18:57 | 59.21549 | 20.78519 | 35176 ft | 315 kts | 244° |
| 2026-05-04 18:57 | 59.20639 | 20.75475 | 35273 ft | 319 kts | 244° |
| 2026-05-04 18:57 | 59.19519 | 20.71735 | 35407 ft | 324 kts | 244° |
| 2026-05-04 18:57 | 59.18371 | 20.67906 | 35523 ft | 329 kts | 244° |
| 2026-05-04 18:58 | 59.17257 | 20.63993 | 35674 ft | 332 kts | 246° |
| 2026-05-04 18:58 | 59.16194 | 20.59949 | 35719 ft | 338 kts | 247° |
| 2026-05-04 18:58 | 59.15246 | 20.56201 | 35738 ft | 345 kts | 248° |
| 2026-05-04 18:59 | 59.14158 | 20.51859 | 35738 ft | 353 kts | 247° |
| 2026-05-04 18:59 | 59.14115 | 20.51688 | 35733 ft | 353 kts | 247° |
| 2026-05-04 19:00 | 59.11966 | 20.43230 | 35741 ft | 367 kts | 247° |
| 2026-05-04 19:00 | 59.09618 | 20.34173 | 35742 ft | 382 kts | 246° |
| 2026-05-04 19:01 | 59.07160 | 20.24816 | 35734 ft | 395 kts | 246° |
| 2026-05-04 19:01 | 59.04616 | 20.15176 | 35764 ft | 406 kts | 246° |
| 2026-05-04 19:02 | 59.02027 | 20.05409 | 35739 ft | 407 kts | 246° |
| 2026-05-04 19:02 | 58.99428 | 19.95646 | 35743 ft | 407 kts | 246° |
| 2026-05-04 19:03 | 58.96840 | 19.85955 | 35735 ft | 407 kts | 246° |
| 2026-05-04 19:03 | 58.94238 | 19.76215 | 35701 ft | 407 kts | 246° |
| 2026-05-04 19:04 | 58.91624 | 19.66464 | 35712 ft | 408 kts | 245° |
| 2026-05-04 19:04 | 58.88993 | 19.56735 | 35723 ft | 409 kts | 245° |
| 2026-05-04 19:05 | 58.86340 | 19.46996 | 35729 ft | 409 kts | 245° |
| 2026-05-04 19:05 | 58.83694 | 19.37267 | 35734 ft | 409 kts | 245° |
| 2026-05-04 19:06 | 58.81036 | 19.27533 | 35759 ft | 410 kts | 245° |
| 2026-05-04 19:06 | 58.78369 | 19.17828 | 35762 ft | 410 kts | 245° |
| 2026-05-04 19:07 | 58.75686 | 19.08125 | 35762 ft | 410 kts | 245° |
| 2026-05-04 19:07 | 58.73004 | 18.98449 | 35735 ft | 410 kts | 245° |
| 2026-05-04 19:08 | 58.70318 | 18.88775 | 35741 ft | 410 kts | 245° |
| 2026-05-04 19:08 | 58.67619 | 18.79108 | 35754 ft | 410 kts | 245° |
| 2026-05-04 19:09 | 58.64913 | 18.69467 | 35758 ft | 410 kts | 244° |
| 2026-05-04 19:09 | 58.62211 | 18.59887 | 35759 ft | 410 kts | 244° |
| 2026-05-04 19:10 | 58.59576 | 18.50581 | 35770 ft | 411 kts | 244° |
| 2026-05-04 19:10 | 58.57726 | 18.44062 | 35772 ft | 411 kts | 244° |
| 2026-05-04 19:11 | 58.57180 | 18.42136 | 35770 ft | 411 kts | 244° |
| 2026-05-04 19:11 | 58.54440 | 18.32520 | 35739 ft | 411 kts | 244° |
| 2026-05-04 19:12 | 58.50307 | 18.18108 | 35755 ft | 412 kts | 244° |
| 2026-05-04 19:13 | 58.47554 | 18.08566 | 35762 ft | 412 kts | 244° |
| 2026-05-04 19:13 | 58.44782 | 17.98983 | 35770 ft | 412 kts | 244° |
| 2026-05-04 19:14 | 58.41996 | 17.89409 | 35776 ft | 412 kts | 244° |
| 2026-05-04 19:14 | 58.39202 | 17.79845 | 35779 ft | 412 kts | 244° |
| 2026-05-04 19:15 | 58.36424 | 17.70357 | 35747 ft | 413 kts | 244° |
| 2026-05-04 19:15 | 58.33617 | 17.60799 | 35779 ft | 413 kts | 243° |
| 2026-05-04 19:16 | 58.30794 | 17.51264 | 35783 ft | 413 kts | 243° |
| 2026-05-04 19:16 | 58.27966 | 17.41737 | 35794 ft | 413 kts | 243° |
| 2026-05-04 19:17 | 58.25137 | 17.32231 | 35797 ft | 413 kts | 243° |
| 2026-05-04 19:17 | 58.22316 | 17.22796 | 35794 ft | 414 kts | 243° |
| 2026-05-04 19:18 | 58.19463 | 17.13303 | 35804 ft | 414 kts | 243° |
| 2026-05-04 19:18 | 58.16612 | 17.03836 | 35760 ft | 414 kts | 243° |
| 2026-05-04 19:19 | 58.13751 | 16.94376 | 35771 ft | 414 kts | 243° |
| 2026-05-04 19:19 | 58.10875 | 16.84912 | 35787 ft | 415 kts | 243° |
| 2026-05-04 19:20 | 58.07988 | 16.75461 | 35820 ft | 415 kts | 243° |
| 2026-05-04 19:20 | 58.05098 | 16.66026 | 35826 ft | 415 kts | 243° |
| 2026-05-04 19:21 | 58.02200 | 16.56612 | 35823 ft | 414 kts | 243° |
| 2026-05-04 19:21 | 57.99294 | 16.47229 | 35822 ft | 414 kts | 242° |
| 2026-05-04 19:22 | 57.96381 | 16.37853 | 35792 ft | 414 kts | 242° |
| 2026-05-04 19:22 | 57.93485 | 16.28557 | 35800 ft | 415 kts | 242° |
| 2026-05-04 19:23 | 57.90560 | 16.19186 | 35806 ft | 415 kts | 242° |
| 2026-05-04 19:23 | 57.87629 | 16.09831 | 35811 ft | 415 kts | 242° |
| 2026-05-04 19:24 | 57.84688 | 16.00485 | 35830 ft | 416 kts | 242° |
| 2026-05-04 19:25 | 57.78713 | 15.81654 | 35837 ft | 415 kts | 242° |
| 2026-05-04 19:25 | 57.75753 | 15.72354 | 35832 ft | 416 kts | 242° |
| 2026-05-04 19:26 | 57.72774 | 15.63078 | 35845 ft | 416 kts | 242° |
| 2026-05-04 19:26 | 57.69792 | 15.53805 | 35841 ft | 416 kts | 242° |
| 2026-05-04 19:27 | 57.66807 | 15.44540 | 35842 ft | 416 kts | 242° |
| 2026-05-04 19:27 | 57.63812 | 15.35301 | 35864 ft | 416 kts | 242° |
| 2026-05-04 19:28 | 57.60820 | 15.26116 | 35858 ft | 416 kts | 242° |
| 2026-05-04 19:28 | 57.57807 | 15.16881 | 35879 ft | 416 kts | 242° |
| 2026-05-04 19:29 | 57.55302 | 15.09226 | 35842 ft | 416 kts | 241° |
| 2026-05-04 19:29 | 57.52285 | 15.00030 | 35848 ft | 416 kts | 241° |
| 2026-05-04 19:30 | 57.49253 | 14.90846 | 35858 ft | 416 kts | 241° |
| 2026-05-04 19:30 | 57.45700 | 14.80142 | 35871 ft | 416 kts | 241° |
| 2026-05-04 19:31 | 57.42675 | 14.71057 | 35818 ft | 415 kts | 241° |
| 2026-05-04 19:31 | 57.41159 | 14.66514 | 35153 ft | 414 kts | 241° |
| 2026-05-04 19:31 | 57.40137 | 14.63459 | 34941 ft | 412 kts | 241° |
| 2026-05-04 19:31 | 57.38622 | 14.58934 | 34701 ft | 413 kts | 241° |
| 2026-05-04 19:32 | 57.37104 | 14.54416 | 34461 ft | 413 kts | 241° |
| 2026-05-04 19:32 | 57.35581 | 14.49897 | 34188 ft | 414 kts | 241° |
| 2026-05-04 19:32 | 57.34067 | 14.45408 | 33971 ft | 415 kts | 241° |
| 2026-05-04 19:32 | 57.32526 | 14.40840 | 33708 ft | 414 kts | 241° |
| 2026-05-04 19:33 | 57.31022 | 14.36387 | 33369 ft | 413 kts | 241° |
| 2026-05-04 19:33 | 57.29502 | 14.31893 | 32461 ft | 412 kts | 241° |
| 2026-05-04 19:33 | 57.27980 | 14.27397 | 31472 ft | 414 kts | 240° |
| 2026-05-04 19:33 | 57.26449 | 14.22885 | 30470 ft | 416 kts | 240° |
| 2026-05-04 19:34 | 57.24905 | 14.18346 | 29358 ft | 417 kts | 240° |
| 2026-05-04 19:34 | 57.23353 | 14.13793 | 28102 ft | 420 kts | 240° |
| 2026-05-04 19:34 | 57.21787 | 14.09216 | 26796 ft | 423 kts | 240° |
| 2026-05-04 19:34 | 57.20204 | 14.04606 | 25467 ft | 427 kts | 240° |
| 2026-05-04 19:35 | 57.18605 | 13.99955 | 24130 ft | 432 kts | 240° |
| 2026-05-04 19:35 | 57.16982 | 13.95320 | 23159 ft | 429 kts | 238° |
| 2026-05-04 19:35 | 57.15097 | 13.91081 | 22159 ft | 428 kts | 229° |
| 2026-05-04 19:35 | 57.12881 | 13.87399 | 21748 ft | 432 kts | 221° |
| 2026-05-04 19:36 | 57.10465 | 13.84036 | 21481 ft | 434 kts | 221° |
| 2026-05-04 19:36 | 57.08062 | 13.80686 | 21221 ft | 433 kts | 221° |
| 2026-05-04 19:36 | 57.05671 | 13.77338 | 20975 ft | 431 kts | 221° |
| 2026-05-04 19:36 | 57.03294 | 13.74011 | 20710 ft | 429 kts | 221° |
| 2026-05-04 19:37 | 57.00920 | 13.70698 | 20455 ft | 427 kts | 221° |
| 2026-05-04 19:37 | 56.98585 | 13.67454 | 20207 ft | 426 kts | 220° |
| 2026-05-04 19:37 | 56.96224 | 13.64191 | 19955 ft | 424 kts | 220° |
| 2026-05-04 19:37 | 56.93873 | 13.60946 | 19724 ft | 423 kts | 221° |
| 2026-05-04 19:38 | 56.91528 | 13.57710 | 19484 ft | 421 kts | 221° |
| 2026-05-04 19:38 | 56.89190 | 13.54489 | 19207 ft | 420 kts | 220° |
| 2026-05-04 19:38 | 56.86857 | 13.51283 | 18963 ft | 419 kts | 220° |
| 2026-05-04 19:38 | 56.84529 | 13.48093 | 18728 ft | 417 kts | 220° |
| 2026-05-04 19:39 | 56.82206 | 13.44917 | 18493 ft | 416 kts | 220° |
| 2026-05-04 19:39 | 56.79898 | 13.41760 | 18256 ft | 414 kts | 220° |
| 2026-05-04 19:39 | 56.77597 | 13.38616 | 17992 ft | 413 kts | 220° |
| 2026-05-04 19:39 | 56.75301 | 13.35486 | 17726 ft | 411 kts | 220° |
| 2026-05-04 19:40 | 56.73014 | 13.32369 | 17468 ft | 409 kts | 220° |
| 2026-05-04 19:40 | 56.70741 | 13.29271 | 17196 ft | 408 kts | 220° |
| 2026-05-04 19:40 | 56.68474 | 13.26187 | 16931 ft | 406 kts | 220° |
| 2026-05-04 19:40 | 56.66209 | 13.23115 | 16645 ft | 405 kts | 220° |
| 2026-05-04 19:41 | 56.63949 | 13.20055 | 16382 ft | 404 kts | 220° |
| 2026-05-04 19:41 | 56.61697 | 13.17007 | 16131 ft | 403 kts | 220° |
| 2026-05-04 19:41 | 56.59452 | 13.13972 | 15871 ft | 402 kts | 220° |
| 2026-05-04 19:41 | 56.57212 | 13.10956 | 15629 ft | 400 kts | 220° |
| 2026-05-04 19:42 | 56.55015 | 13.08007 | 15373 ft | 386 kts | 220° |
| 2026-05-04 19:42 | 56.52913 | 13.05197 | 15114 ft | 362 kts | 220° |
| 2026-05-04 19:42 | 56.50962 | 13.02598 | 14871 ft | 335 kts | 220° |
| 2026-05-04 19:42 | 56.49146 | 13.00182 | 14624 ft | 313 kts | 221° |
| 2026-05-04 19:43 | 56.47447 | 12.97914 | 14383 ft | 294 kts | 221° |
| 2026-05-04 19:43 | 56.45830 | 12.95747 | 14143 ft | 286 kts | 221° |
| 2026-05-04 19:43 | 56.44244 | 12.93614 | 13906 ft | 283 kts | 221° |
| 2026-05-04 19:43 | 56.42665 | 12.91495 | 13635 ft | 283 kts | 221° |
| 2026-05-04 19:44 | 56.41085 | 12.89378 | 13362 ft | 282 kts | 221° |
| 2026-05-04 19:44 | 56.39508 | 12.87270 | 13096 ft | 281 kts | 221° |
| 2026-05-04 19:44 | 56.37939 | 12.85179 | 12767 ft | 281 kts | 221° |
| 2026-05-04 19:44 | 56.36368 | 12.83090 | 12365 ft | 278 kts | 220° |
| 2026-05-04 19:45 | 56.34675 | 12.81362 | 12048 ft | 283 kts | 207° |
| 2026-05-04 19:45 | 56.32838 | 12.80079 | 11718 ft | 283 kts | 206° |
| 2026-05-04 19:45 | 56.31009 | 12.78863 | 11390 ft | 283 kts | 205° |
| 2026-05-04 19:45 | 56.29168 | 12.77644 | 11062 ft | 282 kts | 205° |
| 2026-05-04 19:46 | 56.27329 | 12.76426 | 10742 ft | 281 kts | 205° |
| 2026-05-04 19:46 | 56.25500 | 12.75213 | 10420 ft | 280 kts | 205° |
| 2026-05-04 19:46 | 56.23679 | 12.74002 | 10102 ft | 279 kts | 205° |
| 2026-05-04 19:46 | 56.21864 | 12.72796 | 9788 ft | 278 kts | 205° |
| 2026-05-04 19:47 | 56.20051 | 12.71607 | 9436 ft | 277 kts | 204° |
| 2026-05-04 19:47 | 56.18204 | 12.70609 | 9074 ft | 277 kts | 200° |
| 2026-05-04 19:47 | 56.16352 | 12.69665 | 8709 ft | 276 kts | 200° |
| 2026-05-04 19:47 | 56.14508 | 12.68725 | 8328 ft | 273 kts | 200° |
| 2026-05-04 19:48 | 56.12683 | 12.67795 | 7918 ft | 272 kts | 200° |
| 2026-05-04 19:48 | 56.10871 | 12.66869 | 7519 ft | 270 kts | 200° |
| 2026-05-04 19:48 | 56.09066 | 12.65941 | 7126 ft | 269 kts | 200° |
| 2026-05-04 19:48 | 56.07272 | 12.65016 | 6736 ft | 267 kts | 200° |
| 2026-05-04 19:49 | 56.05489 | 12.64095 | 6333 ft | 266 kts | 200° |
| 2026-05-04 19:49 | 56.03739 | 12.63188 | 5913 ft | 265 kts | 200° |
| 2026-05-04 19:49 | 56.01973 | 12.62265 | 5484 ft | 263 kts | 200° |
| 2026-05-04 19:49 | 56.00217 | 12.61338 | 5063 ft | 262 kts | 200° |
| 2026-05-04 19:50 | 55.98475 | 12.60410 | 4650 ft | 260 kts | 200° |
| 2026-05-04 19:50 | 55.96776 | 12.59505 | 4489 ft | 248 kts | 200° |
| 2026-05-04 19:50 | 55.95159 | 12.58650 | 4357 ft | 236 kts | 200° |
| 2026-05-04 19:50 | 55.93611 | 12.57838 | 4115 ft | 230 kts | 200° |
| 2026-05-04 19:51 | 55.92084 | 12.57032 | 3981 ft | 229 kts | 200° |
| 2026-05-04 19:51 | 55.90557 | 12.56221 | 3986 ft | 230 kts | 198° |
| 2026-05-04 19:51 | 55.88955 | 12.56113 | 3989 ft | 237 kts | 168° |
| 2026-05-04 19:51 | 55.87515 | 12.57559 | 3992 ft | 243 kts | 135° |
| 2026-05-04 19:52 | 55.86583 | 12.60076 | 3994 ft | 246 kts | 118° |
| 2026-05-04 19:52 | 55.85838 | 12.62822 | 3992 ft | 247 kts | 116° |
| 2026-05-04 19:52 | 55.85119 | 12.65600 | 3993 ft | 247 kts | 115° |
| 2026-05-04 19:52 | 55.84405 | 12.68376 | 3996 ft | 247 kts | 115° |
| 2026-05-04 19:53 | 55.83811 | 12.71236 | 3994 ft | 247 kts | 97° |
| 2026-05-04 19:53 | 55.83844 | 12.74277 | 3996 ft | 247 kts | 82° |
| 2026-05-04 19:53 | 55.84067 | 12.77302 | 3995 ft | 247 kts | 81° |
| 2026-05-04 19:53 | 55.84312 | 12.80323 | 3993 ft | 246 kts | 80° |
| 2026-05-04 19:54 | 55.84552 | 12.83257 | 3987 ft | 232 kts | 81° |
| 2026-05-04 19:54 | 55.84781 | 12.86047 | 3787 ft | 225 kts | 80° |
| 2026-05-04 19:54 | 55.85004 | 12.88789 | 3517 ft | 222 kts | 81° |
| 2026-05-04 19:54 | 55.85220 | 12.91499 | 3234 ft | 220 kts | 81° |
| 2026-05-04 19:55 | 55.85159 | 12.94187 | 3007 ft | 217 kts | 110° |
| 2026-05-04 19:55 | 55.84292 | 12.96350 | 2991 ft | 218 kts | 147° |
| 2026-05-04 19:55 | 55.82899 | 12.97260 | 2992 ft | 214 kts | 178° |
| 2026-05-04 19:55 | 55.81412 | 12.97227 | 2984 ft | 212 kts | 199° |
| 2026-05-04 19:56 | 55.80274 | 12.95798 | 2991 ft | 201 kts | 243° |
| 2026-05-04 19:56 | 55.79687 | 12.93543 | 2993 ft | 203 kts | 243° |
| 2026-05-04 19:56 | 55.78671 | 12.91795 | 3002 ft | 208 kts | 218° |
| 2026-05-04 19:56 | 55.77565 | 12.90214 | 2998 ft | 206 kts | 225° |
| 2026-05-04 19:57 | 55.76505 | 12.88534 | 2998 ft | 206 kts | 225° |
| 2026-05-04 19:57 | 55.75437 | 12.86851 | 2998 ft | 205 kts | 225° |
| 2026-05-04 19:57 | 55.74370 | 12.85181 | 3000 ft | 204 kts | 225° |
| 2026-05-04 19:57 | 55.73301 | 12.83509 | 2847 ft | 205 kts | 225° |
| 2026-05-04 19:58 | 55.72233 | 12.81841 | 2601 ft | 204 kts | 225° |
| 2026-05-04 19:58 | 55.71169 | 12.80180 | 2334 ft | 204 kts | 225° |
| 2026-05-04 19:58 | 55.70104 | 12.78520 | 2059 ft | 204 kts | 225° |
| 2026-05-04 19:58 | 55.69042 | 12.76866 | 1782 ft | 203 kts | 225° |
| 2026-05-04 19:59 | 55.67981 | 12.75213 | 1502 ft | 203 kts | 225° |
| 2026-05-04 19:59 | 55.66934 | 12.73584 | 1250 ft | 198 kts | 225° |
| 2026-05-04 19:59 | 55.65916 | 12.72004 | 951 ft | 185 kts | 225° |
| 2026-05-04 19:59 | 55.65001 | 12.70585 | 695 ft | 165 kts | 224° |
| 2026-05-04 20:00 | 55.64174 | 12.69301 | 500 ft | 149 kts | 223° |
| 2026-05-04 20:00 | 55.63417 | 12.68157 | 304 ft | 136 kts | 224° |
| 2026-05-04 20:00 | 55.62736 | 12.67076 | 95 ft | 127 kts | 225° |
| 2026-05-04 20:00 | 55.62138 | 12.66110 | 17 ft | 98 kts | 226° |
| 2026-05-04 20:01 | 55.61820 | 12.65619 | 20 ft | 45 kts | 219° |
| 2026-05-04 20:01 | 55.61602 | 12.65272 | 17 ft | 13 kts | 256° |
| 2026-05-04 20:01 | 55.61615 | 12.65046 | 21 ft | 27 kts | 295° |
| 2026-05-04 20:01 | 55.61704 | 12.64851 | 20 ft | 0 kts | 319° |
| 2026-05-04 20:03 | 55.61715 | 12.64834 | 20 ft | 12 kts | 320° |
| 2026-05-04 20:03 | 55.61778 | 12.64790 | 20 ft | 0 kts | 355° |
| 2026-05-04 20:04 | 55.61784 | 12.64789 | 20 ft | 6 kts | 355° |
| 2026-05-04 20:04 | 55.61894 | 12.64821 | 21 ft | 20 kts | 29° |
| 2026-05-04 20:04 | 55.62014 | 12.64956 | 23 ft | 21 kts | 33° |
| 2026-05-04 20:05 | 55.62083 | 12.65035 | 21 ft | 0 kts | 33° |
| 2026-05-04 20:05 | 55.62083 | 12.65036 | 21 ft | 1 kts | 33° |
| 2026-05-04 20:05 | 55.62118 | 12.65076 | 22 ft | 7 kts | 33° |
| 2026-05-04 20:05 | 55.62120 | 12.65079 | 21 ft | 0 kts | 33° |
| 2026-05-04 20:07 | 55.62165 | 12.65125 | 20 ft | 9 kts | 31° |
| 2026-05-04 20:07 | 55.62232 | 12.65174 | 20 ft | 15 kts | 354° |
| 2026-05-04 20:07 | 55.62282 | 12.65061 | 21 ft | 11 kts | 308° |
| 2026-05-04 20:07 | 55.62331 | 12.64937 | 20 ft | 13 kts | 304° |
| 2026-05-04 20:08 | 55.62382 | 12.64785 | 22 ft | 15 kts | 303° |
| 2026-05-04 20:08 | 55.62445 | 12.64620 | 21 ft | 17 kts | 304° |
| 2026-05-04 20:08 | 55.62514 | 12.64429 | 21 ft | 19 kts | 304° |
| 2026-05-04 20:08 | 55.62551 | 12.64330 | 21 ft | 0 kts | 303° |
| 2026-05-04 20:09 | 55.62555 | 12.64319 | 21 ft | 6 kts | 304° |
| 2026-05-04 20:09 | 55.62603 | 12.64258 | 21 ft | 9 kts | 4° |
| 2026-05-04 20:09 | 55.62652 | 12.64304 | 23 ft | 7 kts | 31° |
| 2026-05-04 20:09 | 55.62694 | 12.64338 | 23 ft | 6 kts | 358° |
| 2026-05-04 20:10 | 55.62723 | 12.64316 | 21 ft | 4 kts | 311° |
| 2026-05-04 20:10 | 55.62733 | 12.64283 | 21 ft | 2 kts | 301° |
| 2026-05-04 20:10 | 55.62738 | 12.64269 | 23 ft | 0 kts | 301° |